Standing Rock, South Dakota
Current Conditions -  °F | °C
As of 10:52 AM on Monday 22 Dec 2014 (Local Time) from KMBG Reporting Station
Light Snow Light Snow  
Wind Chill: 23°   Ceiling: 2000
Heat Index: 32°   Visibility: 8mi
Dew Point: 30°   Wind: 12mph
Humidity: 92%   Direction: 340°NNW
Pressure: 29.42"   Gusts: NA
Location:  45.7843°N, 100.515°W
Report Text: KMBG 221752Z AUTO 34010KT 8SM -SN SCT011 OVC020 00/M01 A2942 RMK AO2 SNE15B50 SLP981 P0001 60001 I1000 I6000 T00001011 10006 21011 50000
Loading
Personal Weather Stations






























Interactive Weather Map New forecast layout! Learn more

10-Day Weather Forecast

Advertisements
Track Severe Weather on mobile